createdAt,value
2023-04-13T00:00:12.122Z,0.57
2023-04-13T00:02:40.786Z,1.37
2023-04-13T00:05:11.835Z,0.63
2023-04-13T00:07:40.652Z,0.70
2023-04-13T00:10:11.106Z,0.80
2023-04-13T00:12:40.961Z,0.80
2023-04-13T00:15:09.942Z,0.93
2023-04-13T00:17:38.744Z,0.83
2023-04-13T00:20:13.085Z,0.83
2023-04-13T00:22:42.249Z,0.40
2023-04-13T00:25:14.311Z,2.37
2023-04-13T00:27:43.455Z,1.37
2023-04-13T00:30:13.057Z,1.50
2023-04-13T00:32:42.290Z,1.73
2023-04-13T00:35:12.172Z,1.43
2023-04-13T00:37:43.033Z,2.67
2023-04-13T00:40:15.937Z,0.80
2023-04-13T00:42:45.016Z,1.60
2023-04-13T00:45:13.592Z,1.10
2023-04-13T00:47:43.313Z,2.07
2023-04-13T00:50:11.517Z,1.03
2023-04-13T00:52:40.167Z,1.67
2023-04-13T00:55:09.069Z,0.80
2023-04-13T00:57:40.733Z,2.63
2023-04-13T01:00:10.683Z,1.27
2023-04-13T01:02:42.444Z,2.60
2023-04-13T01:05:15.622Z,2.27
2023-04-13T01:07:59.513Z,0.67
2023-04-13T01:10:34.542Z,1.77
2023-04-13T01:13:11.626Z,1.37
2023-04-13T01:15:52.136Z,1.87
2023-04-13T01:18:22.688Z,4.20
2023-04-13T01:20:53.640Z,1.23
2023-04-13T01:23:32.536Z,2.23
2023-04-13T01:26:06.811Z,2.37
2023-04-13T01:28:38.658Z,1.40
2023-04-13T01:31:11.646Z,2.53
2023-04-13T01:33:41.795Z,1.60
2023-04-13T01:36:12.447Z,1.43
2023-04-13T01:38:40.796Z,1.20
2023-04-13T01:41:10.786Z,2.40
2023-04-13T01:43:45.127Z,1.47
2023-04-13T01:46:15.358Z,2.57
2023-04-13T01:49:03.822Z,1.20
2023-04-13T01:51:38.716Z,1.90
2023-04-13T01:54:13.485Z,3.17
2023-04-13T01:56:45.518Z,2.03
2023-04-13T01:59:16.349Z,2.37
2023-04-13T02:01:44.963Z,2.67
2023-04-13T02:04:13.747Z,1.40
2023-04-13T02:06:44.074Z,3.50
2023-04-13T02:09:12.656Z,1.67
2023-04-13T02:11:41.062Z,2.30
2023-04-13T02:14:09.512Z,1.80
2023-04-13T02:16:39.778Z,1.90
2023-04-13T02:19:08.001Z,1.50
2023-04-13T02:21:37.034Z,2.17
2023-04-13T02:24:05.785Z,2.57
2023-04-13T02:26:33.926Z,0.80
2023-04-13T02:29:02.057Z,0.93
2023-04-13T02:31:31.922Z,2.13
2023-04-13T02:34:01.614Z,1.87
2023-04-13T02:36:31.152Z,1.57
2023-04-13T02:39:04.490Z,2.47
2023-04-13T02:41:34.905Z,0.90
2023-04-13T02:44:03.438Z,2.53
2023-04-13T02:46:42.755Z,1.70
2023-04-13T02:49:17.167Z,2.90
2023-04-13T02:51:55.309Z,4.73
2023-04-13T02:54:34.155Z,1.50
2023-04-13T02:57:02.283Z,2.50
2023-04-13T02:59:32.220Z,2.43
2023-04-13T03:02:01.774Z,2.13
2023-04-13T03:04:33.489Z,1.30
2023-04-13T03:07:08.281Z,1.50
2023-04-13T03:09:40.176Z,0.83
2023-04-13T03:12:09.250Z,2.30
2023-04-13T03:14:38.422Z,1.97
2023-04-13T03:17:11.618Z,4.13
2023-04-13T03:19:42.614Z,1.27
2023-04-13T03:22:13.047Z,1.50
2023-04-13T03:24:46.444Z,2.33
2023-04-13T03:27:21.302Z,3.03
2023-04-13T03:29:50.622Z,1.90
2023-04-13T03:32:22.755Z,1.87
2023-04-13T03:34:59.176Z,2.43
2023-04-13T03:37:29.907Z,2.63
2023-04-13T03:40:01.884Z,1.97
2023-04-13T03:42:33.395Z,2.27
2023-04-13T03:45:02.206Z,1.27
2023-04-13T03:47:30.579Z,3.13
2023-04-13T03:49:59.989Z,2.50
2023-04-13T03:52:28.514Z,1.70
2023-04-13T03:55:01.038Z,1.97
2023-04-13T03:57:34.348Z,3.00
2023-04-13T04:00:07.213Z,4.53
2023-04-13T04:03:07.387Z,2.90
2023-04-13T04:05:48.146Z,5.00
2023-04-13T04:08:16.157Z,3.87
2023-04-13T04:10:45.043Z,3.17
2023-04-13T04:13:13.384Z,4.97
2023-04-13T04:15:46.030Z,2.17
2023-04-13T04:18:14.362Z,1.73
2023-04-13T04:20:42.902Z,1.80
2023-04-13T04:23:15.254Z,1.93
2023-04-13T04:25:59.536Z,3.57
2023-04-13T04:28:38.488Z,2.83
2023-04-13T04:31:10.574Z,3.23
2023-04-13T04:33:40.970Z,4.23
2023-04-13T04:36:14.083Z,3.97
2023-04-13T04:38:58.093Z,3.67
2023-04-13T04:41:27.186Z,3.90
2023-04-13T04:44:02.950Z,4.10
2023-04-13T04:46:38.669Z,1.93
2023-04-13T04:49:11.109Z,2.73
2023-04-13T04:51:40.044Z,2.00
2023-04-13T04:54:09.678Z,4.00
2023-04-13T04:56:38.128Z,3.77
2023-04-13T04:59:06.906Z,3.90
2023-04-13T05:01:43.419Z,4.30
2023-04-13T05:04:14.060Z,4.80
2023-04-13T05:06:44.457Z,2.87
2023-04-13T05:09:20.669Z,3.10
2023-04-13T05:11:52.648Z,3.90
2023-04-13T05:14:22.149Z,4.60
2023-04-13T05:16:51.130Z,3.23
2023-04-13T05:19:30.090Z,4.27
2023-04-13T05:22:03.019Z,3.50
2023-04-13T05:24:40.070Z,4.60
2023-04-13T05:27:13.400Z,5.73
2023-04-13T05:29:42.367Z,5.33
2023-04-13T05:32:10.649Z,6.33
2023-04-13T05:34:39.017Z,4.43
2023-04-13T05:37:11.844Z,3.93
2023-04-13T05:39:41.269Z,5.50
2023-04-13T05:42:09.734Z,3.97
2023-04-13T05:44:42.748Z,3.87
2023-04-13T05:47:11.118Z,6.27
2023-04-13T05:49:40.043Z,4.67
2023-04-13T05:52:10.678Z,3.27
2023-04-13T05:54:50.103Z,10.33
2023-04-13T05:57:22.033Z,6.47
2023-04-13T05:59:52.155Z,2.10
2023-04-13T06:02:26.423Z,4.43
2023-04-13T06:04:55.071Z,4.03
2023-04-13T06:07:24.204Z,7.10
2023-04-13T06:09:53.451Z,2.13
2023-04-13T06:12:24.096Z,5.03
2023-04-13T06:14:53.873Z,7.17
2023-04-13T06:17:21.936Z,4.43
2023-04-13T06:19:50.090Z,4.63
2023-04-13T06:22:18.352Z,3.97
2023-04-13T06:24:46.212Z,3.40
2023-04-13T06:27:17.082Z,2.33
2023-04-13T06:29:47.518Z,2.53
2023-04-13T06:32:15.905Z,2.40
2023-04-13T06:34:45.110Z,2.80
2023-04-13T06:37:14.166Z,3.03
2023-04-13T06:39:47.442Z,3.57
2023-04-13T06:42:17.244Z,2.73
2023-04-13T06:45:22.236Z,3.17
2023-04-13T06:47:50.718Z,2.97
2023-04-13T06:50:19.120Z,4.17
2023-04-13T06:52:48.984Z,4.20
2023-04-13T06:55:17.427Z,2.00
2023-04-13T06:57:46.945Z,2.40
2023-04-13T07:00:28.774Z,4.00
2023-04-13T07:02:59.277Z,2.93
2023-04-13T07:05:27.464Z,1.90
2023-04-13T07:08:00.590Z,2.00
2023-04-13T07:10:29.008Z,2.73
2023-04-13T07:13:01.667Z,2.83
2023-04-13T07:15:31.983Z,2.03
2023-04-13T07:18:00.338Z,2.77
2023-04-13T07:20:28.770Z,2.90
2023-04-13T07:22:57.133Z,3.83
2023-04-13T07:25:25.436Z,2.23
2023-04-13T07:27:56.020Z,1.97
2023-04-13T07:30:25.501Z,2.30
2023-04-13T07:32:53.621Z,2.17
2023-04-13T07:35:22.349Z,2.50
2023-04-13T07:37:52.875Z,1.23
2023-04-13T07:40:23.191Z,2.23
2023-04-13T07:42:55.359Z,3.73
2023-04-13T07:45:25.219Z,1.77
2023-04-13T07:47:54.702Z,3.73
2023-04-13T07:50:24.788Z,3.63
2023-04-13T07:52:53.063Z,3.47
2023-04-13T07:55:23.867Z,2.73
2023-04-13T07:57:53.020Z,2.00
2023-04-13T08:00:23.063Z,2.30
2023-04-13T08:02:57.313Z,3.23
2023-04-13T08:05:26.868Z,2.07
2023-04-13T08:07:55.296Z,2.67
2023-04-13T08:10:23.902Z,1.87
2023-04-13T08:12:53.423Z,1.63
2023-04-13T08:15:22.896Z,2.53
2023-04-13T08:17:51.003Z,2.47
2023-04-13T08:20:22.108Z,2.67
2023-04-13T08:22:52.528Z,2.03
2023-04-13T08:25:22.025Z,2.03
2023-04-13T08:27:50.440Z,1.77
2023-04-13T08:30:18.924Z,1.77
2023-04-13T08:33:05.307Z,1.83
2023-04-13T08:35:36.216Z,2.10
2023-04-13T08:38:04.240Z,1.33
2023-04-13T08:40:37.701Z,1.70
2023-04-13T08:43:07.504Z,2.10
2023-04-13T08:45:36.799Z,2.30
2023-04-13T08:48:05.235Z,1.90
2023-04-13T08:50:39.134Z,0.97
2023-04-13T08:53:09.156Z,1.30
2023-04-13T08:55:45.156Z,0.73
2023-04-13T08:58:14.763Z,0.80
2023-04-13T09:00:44.202Z,0.77
2023-04-13T09:03:15.538Z,1.37
2023-04-13T09:05:55.115Z,0.97
2023-04-13T09:08:24.234Z,0.97
2023-04-13T09:10:55.697Z,1.40
2023-04-13T09:13:23.759Z,1.47
2023-04-13T09:15:52.390Z,2.43
2023-04-13T09:18:49.981Z,1.30
2023-04-13T09:21:19.772Z,0.83
2023-04-13T09:23:58.487Z,1.23
2023-04-13T09:26:27.098Z,2.33
2023-04-13T09:28:57.657Z,0.77
2023-04-13T09:31:26.295Z,0.93
2023-04-13T09:33:54.650Z,1.53
2023-04-13T09:36:24.146Z,1.23
2023-04-13T09:38:53.438Z,2.23
2023-04-13T09:41:35.408Z,1.10
2023-04-13T09:44:05.199Z,0.90
2023-04-13T09:46:33.206Z,1.77
2023-04-13T09:49:03.229Z,1.93
2023-04-13T09:51:39.751Z,1.03
2023-04-13T09:54:09.061Z,1.50
2023-04-13T09:56:48.074Z,1.77
2023-04-13T09:59:19.206Z,2.83
2023-04-13T10:01:47.571Z,0.97
2023-04-13T10:04:16.513Z,4.20
2023-04-13T10:06:47.042Z,1.97
2023-04-13T10:09:15.882Z,1.27
2023-04-13T10:11:47.192Z,1.73
2023-04-13T10:14:18.784Z,2.60
2023-04-13T10:17:04.924Z,1.97
2023-04-13T10:19:38.950Z,1.77
2023-04-13T10:22:09.623Z,1.67
2023-04-13T10:24:39.711Z,1.30
2023-04-13T10:27:16.332Z,2.38
2023-04-13T10:29:44.338Z,1.63
2023-04-13T10:32:22.382Z,2.70
2023-04-13T10:34:51.052Z,2.35
2023-04-13T10:37:21.919Z,2.40
2023-04-13T10:39:51.713Z,2.30
2023-04-13T10:42:19.792Z,2.73
2023-04-13T10:44:49.303Z,1.60
2023-04-13T10:47:20.402Z,2.03
2023-04-13T10:49:49.751Z,2.43
2023-04-13T10:52:18.319Z,1.60
2023-04-13T10:54:47.674Z,2.77
2023-04-13T10:57:16.765Z,1.57
2023-04-13T10:59:56.456Z,1.00
2023-04-13T11:02:27.844Z,1.70
2023-04-13T11:04:56.122Z,1.73
2023-04-13T11:07:25.880Z,1.80
2023-04-13T11:10:02.821Z,2.97
2023-04-13T11:12:31.425Z,1.00
2023-04-13T11:14:59.817Z,1.70
2023-04-13T11:17:27.996Z,1.63
2023-04-13T11:19:57.642Z,1.40
2023-04-13T11:22:28.054Z,1.90
2023-04-13T11:25:09.482Z,1.10
2023-04-13T11:27:38.125Z,0.93
2023-04-13T11:30:09.227Z,1.50
2023-04-13T11:32:41.365Z,1.33
2023-04-13T11:35:10.825Z,0.82
2023-04-13T11:37:40.034Z,0.93
2023-04-13T11:40:14.780Z,1.42
2023-04-13T11:42:45.222Z,1.48
2023-04-13T11:45:15.656Z,1.30
2023-04-13T11:47:44.048Z,2.38
2023-04-13T11:50:14.239Z,1.65
2023-04-13T11:52:45.151Z,1.98
2023-04-13T11:55:23.291Z,2.08
2023-04-13T11:57:53.188Z,2.37
2023-04-13T12:00:25.928Z,1.77
2023-04-13T12:05:27.492Z,1.10
2023-04-13T12:07:57.516Z,2.27
2023-04-13T12:10:38.129Z,1.20
2023-04-13T12:16:02.299Z,2.47
2023-04-13T12:18:37.433Z,0.93
2023-04-13T12:21:06.447Z,3.07
2023-04-13T12:23:34.743Z,2.00
2023-04-13T12:26:32.058Z,2.50
2023-04-13T12:28:57.476Z,1.53
2023-04-13T12:31:25.817Z,2.23
2023-04-13T12:33:53.766Z,2.37
2023-04-13T12:36:21.911Z,2.73
2023-04-13T12:38:49.828Z,2.87
2023-04-13T12:41:19.244Z,2.33
2023-04-13T12:43:47.343Z,2.80
2023-04-13T12:46:15.692Z,1.63
2023-04-13T12:48:43.860Z,3.23
2023-04-13T12:51:12.019Z,2.30
2023-04-13T12:53:40.265Z,2.97
2023-04-13T12:56:08.925Z,3.30
2023-04-13T12:58:38.344Z,2.83
2023-04-13T13:01:06.996Z,2.67
2023-04-13T13:03:37.053Z,4.17
2023-04-13T13:06:05.720Z,2.13
2023-04-13T13:08:36.824Z,5.37
2023-04-13T13:11:08.409Z,4.60
2023-04-13T13:13:37.844Z,5.80
2023-04-13T13:16:06.631Z,4.43
2023-04-13T13:18:49.088Z,7.83
2023-04-13T13:21:18.679Z,3.83
2023-04-13T13:23:46.728Z,4.47
2023-04-13T13:28:48.117Z,6.30
2023-04-13T13:31:16.368Z,3.80
2023-04-13T13:33:44.315Z,3.97
2023-04-13T13:36:13.883Z,2.97
2023-04-13T13:38:42.721Z,6.30
2023-04-13T13:41:10.973Z,3.97
2023-04-13T13:43:39.229Z,3.13
2023-04-13T13:46:08.844Z,5.63
2023-04-13T13:48:39.519Z,4.97
2023-04-13T13:51:28.125Z,4.20
2023-04-13T13:53:58.543Z,4.57
2023-04-13T13:56:26.814Z,5.43
2023-04-13T13:58:54.625Z,3.73
2023-04-13T14:01:24.062Z,7.10
2023-04-13T14:03:52.131Z,4.47
2023-04-13T14:06:20.332Z,4.13
2023-04-13T14:08:48.335Z,5.87
2023-04-13T14:11:16.468Z,4.07
2023-04-13T14:13:44.424Z,4.80
2023-04-13T14:16:12.523Z,4.90
2023-04-13T14:18:41.796Z,4.93
2023-04-13T14:21:10.906Z,4.20
2023-04-13T14:23:40.225Z,5.20
2023-04-13T14:26:08.670Z,4.87
2023-04-13T14:28:36.960Z,4.53
2023-04-13T14:31:06.379Z,5.67
2023-04-13T14:33:34.308Z,4.13
2023-04-13T14:36:03.877Z,3.50
2023-04-13T14:38:31.753Z,4.30
2023-04-13T14:40:59.756Z,4.77
2023-04-13T14:43:27.675Z,5.40
2023-04-13T14:45:56.071Z,4.60
2023-04-13T14:48:23.953Z,5.00
2023-04-13T14:50:52.696Z,5.27
2023-04-13T14:53:22.258Z,5.10
2023-04-13T14:55:50.349Z,5.20
2023-04-13T14:58:18.194Z,7.33
2023-04-13T15:00:46.200Z,5.70
2023-04-13T15:03:15.069Z,5.63
2023-04-13T15:05:46.325Z,4.33
2023-04-13T15:08:16.563Z,4.30
2023-04-13T15:10:45.919Z,3.70
2023-04-13T15:13:14.636Z,5.47
2023-04-13T15:15:42.596Z,6.50
2023-04-13T15:18:10.644Z,3.77
2023-04-13T15:20:38.649Z,5.63
2023-04-13T15:23:07.107Z,4.93
2023-04-13T15:25:37.173Z,4.83
2023-04-13T15:28:06.455Z,5.87
2023-04-13T15:30:35.343Z,4.37
2023-04-13T15:33:04.280Z,5.13
2023-04-13T15:35:35.864Z,4.00
2023-04-13T15:38:05.188Z,6.23
2023-04-13T15:40:34.912Z,3.97
2023-04-13T15:43:03.133Z,3.70
2023-04-13T15:45:32.549Z,2.80
2023-04-13T15:48:00.811Z,5.27
2023-04-13T15:50:28.688Z,6.17
2023-04-13T15:52:57.027Z,3.20
2023-04-13T15:55:25.303Z,4.40
2023-04-13T15:57:53.781Z,3.67
2023-04-13T16:00:22.985Z,5.83
2023-04-13T16:02:52.456Z,5.53
2023-04-13T16:05:20.956Z,5.20
2023-04-13T16:07:49.855Z,3.53
2023-04-13T16:10:18.660Z,4.13
2023-04-13T16:12:50.295Z,4.13
2023-04-13T16:15:19.453Z,4.67
2023-04-13T16:17:48.379Z,4.63
2023-04-13T16:20:21.199Z,3.83
2023-04-13T16:22:52.815Z,3.80
2023-04-13T16:25:21.104Z,3.83
2023-04-13T16:27:48.997Z,4.63
2023-04-13T16:30:20.627Z,5.30
2023-04-13T16:32:50.080Z,2.87
2023-04-13T16:35:19.620Z,4.80
2023-04-13T16:37:48.017Z,4.10
2023-04-13T16:40:16.633Z,5.97
2023-04-13T16:42:44.597Z,4.80
2023-04-13T16:45:14.868Z,5.33
2023-04-13T16:47:43.584Z,2.93
2023-04-13T16:50:12.634Z,3.77
2023-04-13T16:52:42.243Z,3.90
2023-04-13T16:55:15.054Z,2.43
2023-04-13T16:57:43.548Z,4.80
2023-04-13T17:00:12.559Z,3.80
2023-04-13T17:02:41.808Z,4.67
2023-04-13T17:05:11.546Z,3.37
2023-04-13T17:07:42.493Z,3.30
2023-04-13T17:10:12.498Z,4.93
2023-04-13T17:12:41.563Z,4.80
2023-04-13T17:15:10.648Z,4.30
2023-04-13T17:17:42.709Z,4.27
2023-04-13T17:20:12.128Z,5.80
2023-04-13T17:22:41.779Z,4.10
2023-04-13T17:25:10.660Z,3.47
2023-04-13T17:27:38.691Z,5.53
2023-04-13T17:30:08.433Z,3.87
2023-04-13T17:32:36.658Z,7.10
2023-04-13T17:35:05.165Z,4.50
2023-04-13T17:37:33.191Z,5.77
2023-04-13T17:40:02.949Z,5.03
2023-04-13T17:42:31.022Z,5.90
2023-04-13T17:44:58.989Z,2.87
2023-04-13T17:47:27.021Z,7.20
2023-04-13T17:49:55.599Z,4.27
2023-04-13T17:52:23.742Z,3.47
2023-04-13T17:54:51.957Z,4.73
2023-04-13T17:57:21.229Z,14.30
2023-04-13T17:59:49.283Z,15.83
2023-04-13T18:02:17.196Z,16.77
2023-04-13T18:04:45.249Z,18.57
2023-04-13T18:07:13.244Z,16.03
2023-04-13T18:09:41.541Z,10.43
2023-04-13T18:12:09.554Z,9.77
2023-04-13T18:14:38.926Z,10.33
2023-04-13T18:17:07.121Z,7.23
2023-04-13T18:19:35.007Z,5.67
2023-04-13T18:22:03.110Z,6.67
2023-04-13T18:24:31.142Z,5.73
2023-04-13T18:26:59.551Z,4.73
2023-04-13T18:29:27.493Z,5.23
2023-04-13T18:31:56.921Z,6.50
2023-04-13T18:34:24.895Z,7.60
2023-04-13T18:36:55.227Z,5.03
2023-04-13T18:39:23.488Z,4.23
2023-04-13T18:41:51.463Z,4.57
2023-04-13T18:44:19.299Z,3.13
2023-04-13T18:46:47.678Z,3.83
2023-04-13T18:49:16.964Z,5.33
2023-04-13T18:51:44.926Z,4.83
2023-04-13T18:54:13.070Z,7.27
2023-04-13T18:56:41.424Z,9.77
2023-04-13T18:59:09.593Z,15.57
2023-04-13T19:01:37.801Z,13.10
2023-04-13T19:04:06.044Z,9.27
2023-04-13T19:06:36.402Z,11.07
2023-04-13T19:09:04.781Z,9.90
2023-04-13T19:11:46.970Z,6.03
2023-04-13T19:14:15.032Z,7.30
2023-04-13T19:16:45.646Z,6.73
2023-04-13T19:19:15.655Z,4.90
2023-04-13T19:21:45.628Z,5.63
2023-04-13T19:24:14.036Z,5.83
2023-04-13T19:26:42.381Z,6.47
2023-04-13T19:29:12.708Z,6.57
2023-04-13T19:31:43.949Z,5.53
2023-04-13T19:34:13.125Z,5.00
2023-04-13T19:36:42.115Z,5.53
2023-04-13T19:39:11.694Z,4.33
2023-04-13T19:41:40.769Z,5.43
2023-04-13T19:44:09.403Z,8.73
2023-04-13T19:46:37.564Z,11.00
2023-04-13T19:49:05.650Z,8.90
2023-04-13T19:51:33.601Z,9.30
2023-04-13T19:54:03.045Z,8.33
2023-04-13T19:56:34.410Z,9.07
2023-04-13T19:59:03.134Z,8.10
2023-04-13T20:01:33.024Z,6.57
2023-04-13T20:04:02.244Z,8.17
2023-04-13T20:06:30.901Z,5.07
2023-04-13T20:09:09.006Z,5.23
2023-04-13T20:11:38.554Z,4.93
2023-04-13T20:14:06.435Z,5.47
2023-04-13T20:16:35.355Z,5.53
2023-04-13T20:19:03.655Z,5.57
2023-04-13T20:21:32.896Z,5.43
2023-04-13T20:24:01.132Z,7.03
2023-04-13T20:26:30.581Z,6.67
2023-04-13T20:29:00.958Z,5.03
2023-04-13T20:31:29.929Z,6.33
2023-04-13T20:33:58.407Z,6.57
2023-04-13T20:36:26.996Z,8.63
2023-04-13T20:38:59.698Z,7.50
2023-04-13T20:41:29.746Z,6.47
2023-04-13T20:43:59.618Z,10.17
2023-04-13T20:46:34.645Z,11.47
2023-04-13T20:49:05.141Z,10.87
2023-04-13T20:51:34.001Z,7.13
2023-04-13T20:54:05.275Z,7.17
2023-04-13T20:56:33.571Z,7.43
2023-04-13T20:59:03.082Z,6.83
2023-04-13T21:01:31.971Z,8.57
2023-04-13T21:04:00.111Z,10.20
2023-04-13T21:06:29.797Z,11.27
2023-04-13T21:08:59.189Z,7.03
2023-04-13T21:11:27.524Z,7.13
2023-04-13T21:13:55.924Z,6.47
2023-04-13T21:16:26.494Z,7.67
2023-04-13T21:18:54.876Z,5.87
2023-04-13T21:21:24.820Z,6.40
2023-04-13T21:23:53.742Z,6.50
2023-04-13T21:26:21.866Z,6.80
2023-04-13T21:28:49.734Z,4.97
2023-04-13T21:31:17.737Z,4.93
2023-04-13T21:33:47.103Z,4.40
2023-04-13T21:38:46.267Z,5.97
2023-04-13T21:41:17.697Z,5.77
2023-04-13T21:43:46.018Z,5.00
2023-04-13T21:46:15.648Z,6.13
2023-04-13T21:48:43.782Z,5.07
2023-04-13T21:51:13.122Z,5.70
2023-04-13T21:53:41.043Z,7.37
2023-04-13T21:56:09.103Z,6.30
2023-04-13T21:58:41.356Z,5.30
2023-04-13T22:01:10.005Z,4.30
2023-04-13T22:03:38.689Z,3.63
2023-04-13T22:06:09.329Z,5.10
2023-04-13T22:08:39.005Z,5.13
2023-04-13T22:11:07.650Z,4.53
2023-04-13T22:13:36.277Z,5.00
2023-04-13T22:16:04.427Z,4.07
2023-04-13T22:18:32.428Z,4.40
2023-04-13T22:21:00.770Z,3.33
2023-04-13T22:23:29.239Z,2.20
2023-04-13T22:26:01.343Z,3.60
2023-04-13T22:28:30.224Z,1.97
2023-04-13T22:30:58.537Z,3.23
2023-04-13T22:33:31.918Z,2.47
2023-04-13T22:35:59.879Z,3.40
2023-04-13T22:38:27.780Z,2.80
2023-04-13T22:40:55.770Z,1.90
2023-04-13T22:43:25.770Z,2.57
2023-04-13T22:46:00.604Z,2.43
2023-04-13T22:48:29.739Z,3.20
2023-04-13T22:50:58.409Z,2.57
2023-04-13T22:53:26.969Z,2.87
2023-04-13T22:55:55.206Z,2.87
2023-04-13T22:58:23.018Z,3.87
2023-04-13T23:00:52.577Z,1.90
2023-04-13T23:03:21.209Z,3.47
2023-04-13T23:05:49.733Z,2.83
2023-04-13T23:08:17.723Z,3.73
2023-04-13T23:10:45.826Z,3.57
2023-04-13T23:13:13.805Z,4.70
2023-04-13T23:15:41.691Z,4.80
2023-04-13T23:18:11.055Z,2.33
2023-04-13T23:20:38.990Z,2.70
2023-04-13T23:23:07.002Z,3.97
2023-04-13T23:25:35.001Z,4.70
2023-04-13T23:28:02.844Z,6.47
2023-04-13T23:30:30.847Z,8.50
2023-04-13T23:32:59.060Z,6.37
2023-04-13T23:35:28.292Z,6.83
2023-04-13T23:37:56.131Z,5.27
2023-04-13T23:40:23.951Z,5.97
2023-04-13T23:42:52.025Z,5.10
2023-04-13T23:45:20.053Z,4.47
2023-04-13T23:47:48.118Z,4.50
2023-04-13T23:50:17.859Z,5.47
2023-04-13T23:52:47.195Z,4.00
2023-04-13T23:55:15.590Z,5.37
2023-04-13T23:57:43.430Z,5.17
